• Join FlightAware (Why Join?)
  • Login
  • US Flag 
08:39PM EST


 

Airport Tracker/Info


-or-


 

Live Flight TrackerFlight Track Log ✈ KAP17 ✈ 15-May-2013 ✈ KBOS - KLEB

Flight Track Log - Related Links

Times and Time Zones

All times are in EDT time to prevent confusion due to time zone crossing. See the KAP17 flight status page for this flight to view local times or setup timezone preferences in your user account.

Time Position Orientation Groundspeed Altitude Reporting Facility
EDT Latitude Longitude Course Direction KTS MPH feet Rate Location/Type
08:57AM 42.3667 -71.0167 270° West 117 135 500  Level KA90
08:58AM 42.3667 -71.0500 270° West 120 138 1,700 900 Climbing KA90
08:59AM 42.3833 -71.1000 294° West 121 139 2,400 600 Climbing KA90
09:00AM 42.4000 -71.1333 304° West 138 159 3,000 600 Climbing KA90
09:01AM 42.4333 -71.1500 340° North 133 153 3,700 660 Climbing KA90
09:02AM 42.4667 -71.1667 340° North 139 160 4,400 600 Climbing KA90
09:03AM 42.5000 -71.1833 340° North 136 157 5,000 600 Climbing KA90
09:04AM 42.5500 -71.2000 346° North 141 162 5,600 480 Climbing KA90
09:05AM 42.5833 -71.2167 340° North 140 161 6,000 180 Climbing KA90
09:06AM 42.6167 -71.2500 324° Northwest 157 181 6,000  Level KA90
09:07AM 42.6667 -71.2667 346° North 157 181 6,000  Level KA90
09:08AM 42.7000 -71.2833 340° North 156 180 6,000  Level KA90
09:09AM 42.7333 -71.3000 340° North 157 181 6,000  Level KA90
09:10AM 42.7833 -71.3333 334° Northwest 157 181 6,000  Level KA90
09:11AM 42.8167 -71.3667 324° Northwest 153 176 6,000  Level KA90
09:12AM 42.8500 -71.4000 324° Northwest 156 180 6,000  Level KA90
09:13AM 42.8833 -71.4500 312° West 153 176 6,000  Level KA90
09:14AM 42.9167 -71.4833 324° Northwest 153 176 6,000  Level KA90
09:15AM 42.9333 -71.5167 304° West 155 178 6,000  Level KA90
09:16AM 42.9833 -71.5500 334° Northwest 156 180 6,000  Level KA90
09:17AM 43.0167 -71.6000 312° West 155 178 6,000  Level KA90
09:18AM 43.0417 -71.6361 313° West 173 199 6,000  Level Boston Center
09:19AM 43.0753 -71.6756 319° Northwest 168 193 6,000  Level Boston Center
09:20AM 43.1108 -71.7092 325° Northwest 155 178 6,000  Level Boston Center
09:21AM 43.1422 -71.7486 317° Northwest 160 184 6,000  Level Boston Center
09:22AM 43.1758 -71.7853 322° Northwest 155 178 6,000  Level Boston Center
09:23AM 43.2072 -71.8247 318° Northwest 155 178 6,000  Level Boston Center
09:24AM 43.2431 -71.8614 323° Northwest 162 186 6,000  Level Boston Center
09:25AM 43.2764 -71.9011 319° Northwest 156 180 6,000  Level Boston Center
09:26AM 43.3142 -71.9492 317° Northwest 151 174 6,000  Level Boston Center
09:27AM 43.3478 -71.9803 326° Northwest 151 174 6,000 -120 Level Boston Center
09:28AM 43.3833 -72.0231 319° Northwest 156 180 5,800 -300 Descending Boston Center
09:29AM 43.4231 -72.0656 322° Northwest 161 185 5,400 -420 Descending Boston Center